createdAt,value
2022-08-03T00:01:46.404Z,40.69
2022-08-03T00:08:48.031Z,40.77
2022-08-03T00:15:49.639Z,40.98
2022-08-03T00:22:51.449Z,41.04
2022-08-03T00:30:00.017Z,41.44
2022-08-03T00:37:02.058Z,41.78
2022-08-03T00:44:03.874Z,42.11
2022-08-03T00:51:05.545Z,42.44
2022-08-03T00:58:07.907Z,42.42
2022-08-03T01:05:09.860Z,42.71
2022-08-03T01:12:17.769Z,42.81
2022-08-03T01:19:32.331Z,43.06
2022-08-03T01:27:03.349Z,43.39
2022-08-03T01:34:08.377Z,43.46
2022-08-03T01:41:21.369Z,43.75
2022-08-03T01:48:22.993Z,43.73
2022-08-03T01:55:25.362Z,43.77
2022-08-03T02:02:32.940Z,43.58
2022-08-03T02:09:39.102Z,43.46
2022-08-03T02:16:43.293Z,43.34
2022-08-03T02:23:44.933Z,43.38
2022-08-03T02:30:53.705Z,43.36
2022-08-03T02:37:58.774Z,43.66
2022-08-03T02:45:02.415Z,43.64
2022-08-03T02:52:04.406Z,43.81
2022-08-03T02:59:06.025Z,43.63
2022-08-03T03:06:07.930Z,43.33
2022-08-03T03:13:09.527Z,43.59
2022-08-03T03:20:14.648Z,43.75
2022-08-03T03:27:16.645Z,44.21
2022-08-03T03:34:18.663Z,44.43
2022-08-03T03:41:20.776Z,44.68
2022-08-03T03:48:22.469Z,44.61
2022-08-03T03:55:24.087Z,44.66
2022-08-03T04:02:28.192Z,44.92
2022-08-03T04:09:48.838Z,45.41
2022-08-03T04:16:56.223Z,45.48
2022-08-03T04:24:00.157Z,45.84
2022-08-03T04:31:01.828Z,45.95
2022-08-03T04:38:05.071Z,46.31
2022-08-03T04:45:07.132Z,46.36
2022-08-03T04:52:09.813Z,46.29
2022-08-03T04:59:11.693Z,45.92
2022-08-03T05:06:13.289Z,45.80
2022-08-03T05:13:17.874Z,45.50
2022-08-03T05:20:19.572Z,45.00
2022-08-03T05:27:21.210Z,45.08
2022-08-03T05:34:22.873Z,44.56
2022-08-03T05:41:37.137Z,44.35
2022-08-03T05:48:39.261Z,43.86
2022-08-03T05:55:40.898Z,43.73
2022-08-03T06:02:42.548Z,43.43
2022-08-03T06:10:36.157Z,43.16
2022-08-03T06:17:08.176Z,43.11
2022-08-03T06:24:09.794Z,42.39
2022-08-03T06:31:11.378Z,42.70
2022-08-03T06:38:14.484Z,42.42
2022-08-03T06:45:16.148Z,41.48
2022-08-03T06:52:37.781Z,40.54
2022-08-03T07:00:07.551Z,39.38
2022-08-03T07:07:01.235Z,38.53
2022-08-03T07:14:02.975Z,38.14
2022-08-03T07:21:04.591Z,37.73
2022-08-03T07:28:06.241Z,37.36
2022-08-03T07:35:08.799Z,37.03
2022-08-03T07:42:27.326Z,36.69
2022-08-03T07:49:29.008Z,36.37
2022-08-03T07:56:30.614Z,35.00
2022-08-03T08:03:41.106Z,33.39
2022-08-03T08:10:58.273Z,32.64
2022-08-03T08:18:01.344Z,32.01
2022-08-03T08:25:04.193Z,29.98
2022-08-03T08:32:05.897Z,29.67
2022-08-03T08:39:07.543Z,28.59
2022-08-03T08:46:12.526Z,26.92
2022-08-03T08:53:18.364Z,27.57
2022-08-03T09:00:22.321Z,26.95
2022-08-03T09:07:24.021Z,25.82
2022-08-03T09:14:36.573Z,25.90
2022-08-03T09:21:41.182Z,24.47
2022-08-03T09:28:59.964Z,24.51
2022-08-03T09:36:04.660Z,24.00
2022-08-03T09:43:10.337Z,23.56
2022-08-03T09:50:12.836Z,23.47
2022-08-03T09:57:24.479Z,23.30
2022-08-03T10:04:26.191Z,22.00
2022-08-03T10:11:31.397Z,21.88
2022-08-03T10:18:33.066Z,22.00
2022-08-03T10:25:34.748Z,21.27
2022-08-03T10:32:49.274Z,21.06
2022-08-03T10:39:53.838Z,21.23
2022-08-03T10:46:55.421Z,20.47
2022-08-03T10:53:57.031Z,20.08
2022-08-03T11:01:00.484Z,20.33
2022-08-03T11:08:22.099Z,19.70
2022-08-03T11:15:32.569Z,19.30
2022-08-03T11:22:54.368Z,19.23
2022-08-03T11:29:56.843Z,19.43
2022-08-03T11:37:26.316Z,19.76
2022-08-03T11:44:40.566Z,19.31
2022-08-03T11:51:42.160Z,18.81
2022-08-03T11:59:17.208Z,18.45
2022-08-03T12:06:11.239Z,18.66
2022-08-03T12:14:30.089Z,18.51
2022-08-03T12:20:35.181Z,18.73
2022-08-03T12:27:37.076Z,18.68
2022-08-03T12:34:47.454Z,18.53
2022-08-03T12:41:52.988Z,18.84
2022-08-03T12:49:00.447Z,18.66
2022-08-03T12:56:06.189Z,19.01
2022-08-03T13:10:31.256Z,18.58
2022-08-03T13:17:32.874Z,18.52
2022-08-03T13:24:34.500Z,17.90
2022-08-03T13:31:36.108Z,17.71
2022-08-03T13:38:52.334Z,17.58
2022-08-03T13:45:57.886Z,17.91
2022-08-03T13:52:59.676Z,17.15
2022-08-03T14:00:02.360Z,17.64
2022-08-03T14:07:05.801Z,17.85
2022-08-03T14:14:07.462Z,17.58
2022-08-03T14:21:09.129Z,18.04
2022-08-03T14:28:10.807Z,17.71
2022-08-03T14:35:12.411Z,17.65
2022-08-03T14:42:14.166Z,17.71
2022-08-03T14:50:37.475Z,17.61
2022-08-03T14:56:37.423Z,18.12
2022-08-03T15:03:39.062Z,18.96
2022-08-03T15:10:44.383Z,18.77
2022-08-03T15:18:00.347Z,18.27
2022-08-03T15:25:03.977Z,18.39
2022-08-03T15:32:25.592Z,18.30
2022-08-03T15:39:28.060Z,18.54
2022-08-03T15:46:30.195Z,18.88
2022-08-03T15:53:32.225Z,18.32
2022-08-03T16:00:34.063Z,18.58
2022-08-03T16:08:02.978Z,18.74
2022-08-03T16:15:06.435Z,19.32
2022-08-03T16:22:08.478Z,18.85
2022-08-03T16:29:22.481Z,19.54
2022-08-03T16:36:25.370Z,20.11
2022-08-03T16:43:36.583Z,20.92
2022-08-03T16:50:38.204Z,21.56
2022-08-03T16:57:58.555Z,21.12
2022-08-03T17:05:01.468Z,21.42
2022-08-03T17:12:04.151Z,21.73
2022-08-03T17:19:07.140Z,21.88
2022-08-03T17:26:21.055Z,22.46
2022-08-03T17:33:23.411Z,23.60
2022-08-03T17:40:25.147Z,23.58
2022-08-03T17:47:29.280Z,24.50
2022-08-03T17:55:57.535Z,24.66
2022-08-03T18:02:55.496Z,25.48
2022-08-03T18:10:06.752Z,25.78
2022-08-03T18:17:15.693Z,26.09
2022-08-03T18:24:19.271Z,26.54
2022-08-03T18:38:43.567Z,27.50
2022-08-03T18:45:57.462Z,28.01
2022-08-03T18:53:05.447Z,28.59
2022-08-03T19:00:24.360Z,29.14
2022-08-03T19:07:36.838Z,29.74
2022-08-03T19:14:52.288Z,30.97
2022-08-03T19:21:55.269Z,31.33
2022-08-03T19:28:57.033Z,31.77
2022-08-03T19:35:58.790Z,32.50
2022-08-03T19:43:07.336Z,32.14
2022-08-03T19:50:14.263Z,32.19
2022-08-03T19:57:17.533Z,33.16
2022-08-03T20:04:20.567Z,33.10
2022-08-03T20:11:28.794Z,33.76
2022-08-03T20:18:33.620Z,34.61
2022-08-03T20:25:55.773Z,34.83
2022-08-03T20:33:00.387Z,35.71
2022-08-03T20:40:02.809Z,36.07
2022-08-03T20:47:06.127Z,36.82
2022-08-03T20:54:28.736Z,37.26
2022-08-03T21:01:36.136Z,37.91
2022-08-03T21:08:38.788Z,37.77
2022-08-03T21:12:58.265Z,27.05
2022-08-03T21:16:02.935Z,38.22
2022-08-03T21:23:40.488Z,38.85
2022-08-03T21:30:35.434Z,39.25
2022-08-03T21:37:37.935Z,39.58
2022-08-03T21:44:39.646Z,39.94
2022-08-03T21:51:41.452Z,40.31
2022-08-03T21:58:54.509Z,40.14
2022-08-03T22:06:04.689Z,40.08
2022-08-03T22:13:06.763Z,40.34
2022-08-03T22:20:10.267Z,40.86
2022-08-03T22:27:30.499Z,40.46
2022-08-03T22:34:32.190Z,40.25
2022-08-03T22:41:33.820Z,39.78
2022-08-03T22:48:37.179Z,39.96
2022-08-03T22:55:43.125Z,40.70
2022-08-03T23:02:47.574Z,40.19
2022-08-03T23:09:49.304Z,40.03
2022-08-03T23:16:51.068Z,40.22
2022-08-03T23:23:52.665Z,40.43
2022-08-03T23:30:54.427Z,40.12
2022-08-03T23:38:21.431Z,40.44
2022-08-03T23:45:18.763Z,40.17
2022-08-03T23:52:33.467Z,40.40
2022-08-03T23:59:41.151Z,40.40
